sensor_id;sensor_type;location;lat;lon;timestamp;P1;durP1;ratioP1;P2;durP2;ratioP2
39214;SDS011;24932;51.746;14.334;2022-11-25T00:00:41;38.17;;;16.8;;
39214;SDS011;24932;51.746;14.334;2022-11-25T00:04:40;47.13;;;17.3;;
39214;SDS011;24932;51.746;14.334;2022-11-25T00:08:41;45.72;;;15.02;;
39214;SDS011;24932;51.746;14.334;2022-11-25T00:12:40;42.7;;;15.73;;
39214;SDS011;24932;51.746;14.334;2022-11-25T00:16:48;46.65;;;16.62;;
39214;SDS011;24932;51.746;14.334;2022-11-25T00:20:40;44.17;;;16.37;;
39214;SDS011;24932;51.746;14.334;2022-11-25T00:24:40;46.95;;;16.23;;
39214;SDS011;24932;51.746;14.334;2022-11-25T00:28:41;47.83;;;16.85;;
39214;SDS011;24932;51.746;14.334;2022-11-25T00:32:40;33.38;;;16.4;;
39214;SDS011;24932;51.746;14.334;2022-11-25T00:36:40;41.05;;;15.6;;
39214;SDS011;24932;51.746;14.334;2022-11-25T00:40:40;43.72;;;15.9;;
39214;SDS011;24932;51.746;14.334;2022-11-25T00:44:41;39.4;;;16.7;;
39214;SDS011;24932;51.746;14.334;2022-11-25T00:48:40;42.95;;;16.45;;
39214;SDS011;24932;51.746;14.334;2022-11-25T00:52:40;38.57;;;16.37;;
39214;SDS011;24932;51.746;14.334;2022-11-25T00:56:40;44.83;;;17.02;;
39214;SDS011;24932;51.746;14.334;2022-11-25T01:00:40;41.9;;;16.3;;
39214;SDS011;24932;51.746;14.334;2022-11-25T01:04:40;41.6;;;16.17;;
39214;SDS011;24932;51.746;14.334;2022-11-25T01:08:40;49.05;;;16.95;;
39214;SDS011;24932;51.746;14.334;2022-11-25T01:12:40;46.4;;;18.8;;
39214;SDS011;24932;51.746;14.334;2022-11-25T01:16:41;47.4;;;14.43;;
39214;SDS011;24932;51.746;14.334;2022-11-25T01:20:40;38.93;;;15.47;;
39214;SDS011;24932;51.746;14.334;2022-11-25T01:24:40;36.43;;;14.57;;
39214;SDS011;24932;51.746;14.334;2022-11-25T01:28:40;51.13;;;17.73;;
39214;SDS011;24932;51.746;14.334;2022-11-25T01:32:40;38.63;;;14.77;;
39214;SDS011;24932;51.746;14.334;2022-11-25T01:36:40;38.5;;;14.4;;
39214;SDS011;24932;51.746;14.334;2022-11-25T01:40:40;42.17;;;15.23;;
39214;SDS011;24932;51.746;14.334;2022-11-25T01:44:40;38.97;;;15.23;;
39214;SDS011;24932;51.746;14.334;2022-11-25T01:48:41;38.97;;;13.97;;
39214;SDS011;24932;51.746;14.334;2022-11-25T01:52:42;37.53;;;15.07;;
39214;SDS011;24932;51.746;14.334;2022-11-25T01:56:41;45.8;;;16.4;;
39214;SDS011;24932;51.746;14.334;2022-11-25T02:00:40;40.83;;;14.47;;
39214;SDS011;24932;51.746;14.334;2022-11-25T02:04:40;64.47;;;16.73;;
39214;SDS011;24932;51.746;14.334;2022-11-25T02:08:41;42.67;;;14.83;;
39214;SDS011;24932;51.746;14.334;2022-11-25T02:12:42;39.17;;;15.03;;
39214;SDS011;24932;51.746;14.334;2022-11-25T02:16:40;43.27;;;14.23;;
39214;SDS011;24932;51.746;14.334;2022-11-25T02:20:41;51.2;;;15.6;;
39214;SDS011;24932;51.746;14.334;2022-11-25T02:24:41;42.0;;;13.97;;
39214;SDS011;24932;51.746;14.334;2022-11-25T02:28:40;51.77;;;13.77;;
39214;SDS011;24932;51.746;14.334;2022-11-25T02:32:42;39.1;;;13.6;;
39214;SDS011;24932;51.746;14.334;2022-11-25T02:36:40;50.53;;;14.27;;
39214;SDS011;24932;51.746;14.334;2022-11-25T02:40:43;42.93;;;14.73;;
39214;SDS011;24932;51.746;14.334;2022-11-25T02:44:40;56.27;;;15.73;;
39214;SDS011;24932;51.746;14.334;2022-11-25T02:49:08;51.2;;;15.17;;
39214;SDS011;24932;51.746;14.334;2022-11-25T02:52:40;49.03;;;13.87;;
39214;SDS011;24932;51.746;14.334;2022-11-25T02:56:40;33.1;;;12.87;;
39214;SDS011;24932;51.746;14.334;2022-11-25T03:00:41;38.63;;;13.17;;
39214;SDS011;24932;51.746;14.334;2022-11-25T03:04:40;41.9;;;14.63;;
39214;SDS011;24932;51.746;14.334;2022-11-25T03:08:40;37.83;;;12.83;;
39214;SDS011;24932;51.746;14.334;2022-11-25T03:12:41;35.9;;;13.37;;
39214;SDS011;24932;51.746;14.334;2022-11-25T03:16:41;36.03;;;13.23;;
39214;SDS011;24932;51.746;14.334;2022-11-25T03:20:40;40.13;;;13.97;;
39214;SDS011;24932;51.746;14.334;2022-11-25T03:24:40;35.53;;;14.5;;
39214;SDS011;24932;51.746;14.334;2022-11-25T03:28:40;35.17;;;13.53;;
39214;SDS011;24932;51.746;14.334;2022-11-25T03:32:40;46.3;;;14.4;;
39214;SDS011;24932;51.746;14.334;2022-11-25T03:36:40;42.47;;;15.57;;
39214;SDS011;24932;51.746;14.334;2022-11-25T03:40:40;35.17;;;13.67;;
39214;SDS011;24932;51.746;14.334;2022-11-25T03:44:41;38.0;;;14.7;;
39214;SDS011;24932;51.746;14.334;2022-11-25T03:48:40;41.3;;;14.53;;
39214;SDS011;24932;51.746;14.334;2022-11-25T03:52:41;33.13;;;13.83;;
39214;SDS011;24932;51.746;14.334;2022-11-25T03:56:40;43.4;;;14.5;;
39214;SDS011;24932;51.746;14.334;2022-11-25T04:00:40;40.33;;;14.2;;
39214;SDS011;24932;51.746;14.334;2022-11-25T04:04:41;44.87;;;14.37;;
39214;SDS011;24932;51.746;14.334;2022-11-25T04:08:40;40.63;;;14.23;;
39214;SDS011;24932;51.746;14.334;2022-11-25T04:12:40;44.33;;;14.93;;
39214;SDS011;24932;51.746;14.334;2022-11-25T04:16:40;30.63;;;13.7;;
39214;SDS011;24932;51.746;14.334;2022-11-25T04:20:40;32.6;;;13.73;;
39214;SDS011;24932;51.746;14.334;2022-11-25T04:24:41;37.9;;;14.67;;
39214;SDS011;24932;51.746;14.334;2022-11-25T04:28:40;31.67;;;12.53;;
39214;SDS011;24932;51.746;14.334;2022-11-25T04:32:40;36.17;;;13.73;;
39214;SDS011;24932;51.746;14.334;2022-11-25T04:36:40;33.43;;;12.9;;
39214;SDS011;24932;51.746;14.334;2022-11-25T04:40:40;30.53;;;12.47;;
39214;SDS011;24932;51.746;14.334;2022-11-25T04:44:40;42.27;;;14.57;;
39214;SDS011;24932;51.746;14.334;2022-11-25T04:48:40;40.57;;;13.73;;
39214;SDS011;24932;51.746;14.334;2022-11-25T04:52:40;44.8;;;13.7;;
39214;SDS011;24932;51.746;14.334;2022-11-25T04:56:40;35.2;;;13.43;;
39214;SDS011;24932;51.746;14.334;2022-11-25T05:00:39;44.6;;;13.73;;
39214;SDS011;24932;51.746;14.334;2022-11-25T05:04:41;33.8;;;13.63;;
39214;SDS011;24932;51.746;14.334;2022-11-25T05:08:40;44.03;;;15.5;;
39214;SDS011;24932;51.746;14.334;2022-11-25T05:12:40;39.1;;;14.1;;
39214;SDS011;24932;51.746;14.334;2022-11-25T05:16:40;33.97;;;12.9;;
39214;SDS011;24932;51.746;14.334;2022-11-25T05:20:41;31.13;;;13.23;;
39214;SDS011;24932;51.746;14.334;2022-11-25T05:24:40;41.33;;;13.83;;
39214;SDS011;24932;51.746;14.334;2022-11-25T05:28:40;44.3;;;13.83;;
39214;SDS011;24932;51.746;14.334;2022-11-25T05:32:40;28.57;;;13.47;;
39214;SDS011;24932;51.746;14.334;2022-11-25T05:36:40;38.57;;;12.93;;
39214;SDS011;24932;51.746;14.334;2022-11-25T05:40:40;37.27;;;14.13;;
39214;SDS011;24932;51.746;14.334;2022-11-25T05:44:40;39.33;;;15.37;;
39214;SDS011;24932;51.746;14.334;2022-11-25T05:48:40;30.4;;;13.9;;
39214;SDS011;24932;51.746;14.334;2022-11-25T05:52:40;42.43;;;14.5;;
39214;SDS011;24932;51.746;14.334;2022-11-25T05:56:39;36.3;;;15.13;;
39214;SDS011;24932;51.746;14.334;2022-11-25T06:00:41;36.13;;;16.53;;
39214;SDS011;24932;51.746;14.334;2022-11-25T06:04:40;43.0;;;14.2;;
39214;SDS011;24932;51.746;14.334;2022-11-25T06:08:40;47.73;;;17.37;;
39214;SDS011;24932;51.746;14.334;2022-11-25T06:12:41;39.83;;;15.3;;
39214;SDS011;24932;51.746;14.334;2022-11-25T06:16:40;56.43;;;17.77;;
39214;SDS011;24932;51.746;14.334;2022-11-25T06:20:41;48.6;;;17.43;;
39214;SDS011;24932;51.746;14.334;2022-11-25T06:24:41;39.63;;;17.53;;
39214;SDS011;24932;51.746;14.334;2022-11-25T06:28:40;49.67;;;17.97;;
39214;SDS011;24932;51.746;14.334;2022-11-25T06:32:40;34.8;;;15.13;;
39214;SDS011;24932;51.746;14.334;2022-11-25T06:36:40;35.27;;;16.0;;
39214;SDS011;24932;51.746;14.334;2022-11-25T06:40:40;42.7;;;15.4;;
39214;SDS011;24932;51.746;14.334;2022-11-25T06:44:41;45.4;;;16.07;;
39214;SDS011;24932;51.746;14.334;2022-11-25T06:48:40;53.5;;;16.93;;
39214;SDS011;24932;51.746;14.334;2022-11-25T06:52:40;43.33;;;16.9;;
39214;SDS011;24932;51.746;14.334;2022-11-25T06:56:40;44.8;;;15.5;;
39214;SDS011;24932;51.746;14.334;2022-11-25T07:00:41;45.9;;;17.27;;
39214;SDS011;24932;51.746;14.334;2022-11-25T07:04:40;43.37;;;15.53;;
39214;SDS011;24932;51.746;14.334;2022-11-25T07:08:41;42.07;;;15.4;;
39214;SDS011;24932;51.746;14.334;2022-11-25T07:12:40;36.7;;;15.53;;
39214;SDS011;24932;51.746;14.334;2022-11-25T07:16:44;34.1;;;14.23;;
39214;SDS011;24932;51.746;14.334;2022-11-25T07:20:41;38.43;;;15.87;;
39214;SDS011;24932;51.746;14.334;2022-11-25T07:24:40;40.07;;;16.5;;
39214;SDS011;24932;51.746;14.334;2022-11-25T07:28:40;42.43;;;15.53;;
39214;SDS011;24932;51.746;14.334;2022-11-25T07:32:40;43.93;;;16.43;;
39214;SDS011;24932;51.746;14.334;2022-11-25T07:36:40;47.17;;;15.73;;
39214;SDS011;24932;51.746;14.334;2022-11-25T07:40:40;42.23;;;16.1;;
39214;SDS011;24932;51.746;14.334;2022-11-25T07:44:40;38.27;;;16.0;;
39214;SDS011;24932;51.746;14.334;2022-11-25T07:48:40;46.97;;;15.37;;
39214;SDS011;24932;51.746;14.334;2022-11-25T07:52:40;39.77;;;15.0;;
39214;SDS011;24932;51.746;14.334;2022-11-25T07:56:41;35.67;;;15.37;;
39214;SDS011;24932;51.746;14.334;2022-11-25T08:00:40;32.37;;;14.3;;
39214;SDS011;24932;51.746;14.334;2022-11-25T08:04:40;28.6;;;13.57;;
39214;SDS011;24932;51.746;14.334;2022-11-25T08:08:40;30.67;;;13.13;;
39214;SDS011;24932;51.746;14.334;2022-11-25T08:12:40;31.5;;;13.9;;
39214;SDS011;24932;51.746;14.334;2022-11-25T08:16:40;32.0;;;13.7;;
39214;SDS011;24932;51.746;14.334;2022-11-25T08:20:40;25.45;;;12.2;;
39214;SDS011;24932;51.746;14.334;2022-11-25T08:24:40;25.67;;;12.37;;
39214;SDS011;24932;51.746;14.334;2022-11-25T08:28:41;21.58;;;11.65;;
39214;SDS011;24932;51.746;14.334;2022-11-25T08:32:40;37.45;;;11.75;;
39214;SDS011;24932;51.746;14.334;2022-11-25T08:36:48;22.17;;;10.73;;
39214;SDS011;24932;51.746;14.334;2022-11-25T08:40:42;29.85;;;10.82;;
39214;SDS011;24932;51.746;14.334;2022-11-25T08:44:40;28.8;;;10.52;;
39214;SDS011;24932;51.746;14.334;2022-11-25T08:48:40;22.7;;;10.1;;
39214;SDS011;24932;51.746;14.334;2022-11-25T08:52:40;26.87;;;10.82;;
39214;SDS011;24932;51.746;14.334;2022-11-25T08:56:40;22.6;;;9.6;;
39214;SDS011;24932;51.746;14.334;2022-11-25T09:00:41;17.83;;;9.07;;
39214;SDS011;24932;51.746;14.334;2022-11-25T09:04:40;22.2;;;9.98;;
39214;SDS011;24932;51.746;14.334;2022-11-25T09:08:41;27.52;;;9.6;;
39214;SDS011;24932;51.746;14.334;2022-11-25T09:12:40;24.33;;;9.55;;
39214;SDS011;24932;51.746;14.334;2022-11-25T09:16:40;18.85;;;8.13;;
39214;SDS011;24932;51.746;14.334;2022-11-25T09:20:41;15.93;;;7.6;;
39214;SDS011;24932;51.746;14.334;2022-11-25T09:24:40;18.73;;;7.82;;
39214;SDS011;24932;51.746;14.334;2022-11-25T09:28:40;20.85;;;7.93;;
39214;SDS011;24932;51.746;14.334;2022-11-25T09:32:40;11.77;;;6.32;;
39214;SDS011;24932;51.746;14.334;2022-11-25T09:36:40;23.25;;;6.78;;
39214;SDS011;24932;51.746;14.334;2022-11-25T09:40:42;18.62;;;6.47;;
39214;SDS011;24932;51.746;14.334;2022-11-25T09:44:45;12.93;;;6.0;;
39214;SDS011;24932;51.746;14.334;2022-11-25T09:48:44;18.12;;;6.5;;
39214;SDS011;24932;51.746;14.334;2022-11-25T09:52:43;24.63;;;5.6;;
39214;SDS011;24932;51.746;14.334;2022-11-25T09:56:41;18.8;;;5.9;;
39214;SDS011;24932;51.746;14.334;2022-11-25T10:00:40;16.27;;;4.82;;
39214;SDS011;24932;51.746;14.334;2022-11-25T10:04:41;13.77;;;4.25;;
39214;SDS011;24932;51.746;14.334;2022-11-25T10:08:41;11.55;;;5.3;;
39214;SDS011;24932;51.746;14.334;2022-11-25T10:12:41;8.68;;;3.42;;
39214;SDS011;24932;51.746;14.334;2022-11-25T10:16:42;11.68;;;3.97;;
39214;SDS011;24932;51.746;14.334;2022-11-25T10:20:41;8.8;;;4.1;;
39214;SDS011;24932;51.746;14.334;2022-11-25T10:24:41;9.3;;;4.0;;
39214;SDS011;24932;51.746;14.334;2022-11-25T10:28:42;15.25;;;4.5;;
39214;SDS011;24932;51.746;14.334;2022-11-25T10:32:42;6.78;;;3.97;;
39214;SDS011;24932;51.746;14.334;2022-11-25T10:36:40;13.1;;;4.12;;
39214;SDS011;24932;51.746;14.334;2022-11-25T10:40:41;10.27;;;3.85;;
39214;SDS011;24932;51.746;14.334;2022-11-25T10:44:41;8.43;;;3.47;;
39214;SDS011;24932;51.746;14.334;2022-11-25T10:48:46;9.57;;;2.7;;
39214;SDS011;24932;51.746;14.334;2022-11-25T10:52:42;11.2;;;2.97;;
39214;SDS011;24932;51.746;14.334;2022-11-25T10:56:42;11.8;;;3.58;;
39214;SDS011;24932;51.746;14.334;2022-11-25T11:00:41;10.8;;;2.87;;
39214;SDS011;24932;51.746;14.334;2022-11-25T11:04:48;8.07;;;3.28;;
39214;SDS011;24932;51.746;14.334;2022-11-25T11:08:40;7.87;;;2.9;;
39214;SDS011;24932;51.746;14.334;2022-11-25T11:12:49;10.85;;;2.53;;
39214;SDS011;24932;51.746;14.334;2022-11-25T11:16:41;11.12;;;3.05;;
39214;SDS011;24932;51.746;14.334;2022-11-25T11:20:44;12.3;;;2.72;;
39214;SDS011;24932;51.746;14.334;2022-11-25T11:24:41;7.9;;;2.8;;
39214;SDS011;24932;51.746;14.334;2022-11-25T11:28:40;10.18;;;2.72;;
39214;SDS011;24932;51.746;14.334;2022-11-25T11:32:41;7.3;;;2.6;;
39214;SDS011;24932;51.746;14.334;2022-11-25T11:36:44;13.02;;;3.6;;
39214;SDS011;24932;51.746;14.334;2022-11-25T11:40:41;11.18;;;2.78;;
39214;SDS011;24932;51.746;14.334;2022-11-25T11:44:45;7.87;;;2.28;;
39214;SDS011;24932;51.746;14.334;2022-11-25T11:48:43;9.45;;;2.3;;
39214;SDS011;24932;51.746;14.334;2022-11-25T11:52:44;8.73;;;2.78;;
39214;SDS011;24932;51.746;14.334;2022-11-25T11:56:41;17.15;;;3.62;;
39214;SDS011;24932;51.746;14.334;2022-11-25T12:00:42;6.7;;;1.92;;
39214;SDS011;24932;51.746;14.334;2022-11-25T12:04:42;10.13;;;2.75;;
39214;SDS011;24932;51.746;14.334;2022-11-25T12:08:43;13.8;;;2.22;;
39214;SDS011;24932;51.746;14.334;2022-11-25T12:12:41;8.23;;;2.12;;
39214;SDS011;24932;51.746;14.334;2022-11-25T12:16:42;10.13;;;2.2;;
39214;SDS011;24932;51.746;14.334;2022-11-25T12:20:42;9.15;;;2.1;;
39214;SDS011;24932;51.746;14.334;2022-11-25T12:24:41;10.75;;;2.17;;
39214;SDS011;24932;51.746;14.334;2022-11-25T12:28:42;10.1;;;1.98;;
39214;SDS011;24932;51.746;14.334;2022-11-25T12:32:44;9.0;;;1.98;;
39214;SDS011;24932;51.746;14.334;2022-11-25T12:36:41;6.85;;;1.75;;
39214;SDS011;24932;51.746;14.334;2022-11-25T12:40:41;8.57;;;2.22;;
39214;SDS011;24932;51.746;14.334;2022-11-25T12:44:43;7.22;;;2.53;;
39214;SDS011;24932;51.746;14.334;2022-11-25T12:48:41;9.57;;;2.47;;
39214;SDS011;24932;51.746;14.334;2022-11-25T12:52:43;8.43;;;1.98;;
39214;SDS011;24932;51.746;14.334;2022-11-25T12:56:45;12.57;;;2.53;;
39214;SDS011;24932;51.746;14.334;2022-11-25T13:00:49;7.9;;;1.8;;
39214;SDS011;24932;51.746;14.334;2022-11-25T13:06:15;6.78;;;2.05;;
39214;SDS011;24932;51.746;14.334;2022-11-25T13:08:47;5.6;;;1.95;;
39214;SDS011;24932;51.746;14.334;2022-11-25T13:12:43;17.55;;;6.9;;
39214;SDS011;24932;51.746;14.334;2022-11-25T13:16:41;9.5;;;2.3;;
39214;SDS011;24932;51.746;14.334;2022-11-25T13:20:42;13.13;;;3.6;;
39214;SDS011;24932;51.746;14.334;2022-11-25T13:24:40;11.0;;;4.2;;
39214;SDS011;24932;51.746;14.334;2022-11-25T13:28:40;16.23;;;2.7;;
39214;SDS011;24932;51.746;14.334;2022-11-25T13:32:41;13.45;;;3.03;;
39214;SDS011;24932;51.746;14.334;2022-11-25T13:36:44;9.15;;;3.0;;
39214;SDS011;24932;51.746;14.334;2022-11-25T13:40:41;9.85;;;2.87;;
39214;SDS011;24932;51.746;14.334;2022-11-25T13:44:47;5.82;;;2.37;;
39214;SDS011;24932;51.746;14.334;2022-11-25T13:48:40;7.1;;;2.28;;
39214;SDS011;24932;51.746;14.334;2022-11-25T13:52:41;14.18;;;2.6;;
39214;SDS011;24932;51.746;14.334;2022-11-25T13:56:40;10.63;;;4.25;;
39214;SDS011;24932;51.746;14.334;2022-11-25T14:00:42;15.55;;;3.87;;
39214;SDS011;24932;51.746;14.334;2022-11-25T14:04:42;10.15;;;3.83;;
39214;SDS011;24932;51.746;14.334;2022-11-25T14:08:41;10.32;;;3.4;;
39214;SDS011;24932;51.746;14.334;2022-11-25T14:12:51;12.2;;;4.15;;
39214;SDS011;24932;51.746;14.334;2022-11-25T14:16:46;18.52;;;3.58;;
39214;SDS011;24932;51.746;14.334;2022-11-25T14:20:42;15.85;;;4.85;;
39214;SDS011;24932;51.746;14.334;2022-11-25T14:24:41;18.0;;;5.85;;
39214;SDS011;24932;51.746;14.334;2022-11-25T14:28:41;18.4;;;4.3;;
39214;SDS011;24932;51.746;14.334;2022-11-25T14:32:41;10.93;;;3.8;;
39214;SDS011;24932;51.746;14.334;2022-11-25T14:36:41;16.23;;;4.37;;
39214;SDS011;24932;51.746;14.334;2022-11-25T14:40:42;12.13;;;4.2;;
39214;SDS011;24932;51.746;14.334;2022-11-25T14:44:44;20.2;;;4.1;;
39214;SDS011;24932;51.746;14.334;2022-11-25T14:48:41;17.73;;;4.15;;
39214;SDS011;24932;51.746;14.334;2022-11-25T14:52:41;8.1;;;3.25;;
39214;SDS011;24932;51.746;14.334;2022-11-25T14:56:40;8.1;;;3.55;;
39214;SDS011;24932;51.746;14.334;2022-11-25T15:00:48;8.02;;;3.78;;
39214;SDS011;24932;51.746;14.334;2022-11-25T15:04:40;12.0;;;3.4;;
39214;SDS011;24932;51.746;14.334;2022-11-25T15:08:41;18.42;;;6.25;;
39214;SDS011;24932;51.746;14.334;2022-11-25T15:12:48;12.82;;;4.85;;
39214;SDS011;24932;51.746;14.334;2022-11-25T15:16:40;13.93;;;5.72;;
39214;SDS011;24932;51.746;14.334;2022-11-25T15:20:43;14.93;;;5.4;;
39214;SDS011;24932;51.746;14.334;2022-11-25T15:24:41;14.0;;;5.73;;
39214;SDS011;24932;51.746;14.334;2022-11-25T15:28:40;15.2;;;5.12;;
39214;SDS011;24932;51.746;14.334;2022-11-25T15:32:41;13.65;;;5.4;;
39214;SDS011;24932;51.746;14.334;2022-11-25T15:36:40;12.65;;;5.7;;
39214;SDS011;24932;51.746;14.334;2022-11-25T15:40:40;18.1;;;5.97;;
39214;SDS011;24932;51.746;14.334;2022-11-25T15:44:43;20.95;;;6.1;;
39214;SDS011;24932;51.746;14.334;2022-11-25T15:48:41;12.5;;;4.9;;
39214;SDS011;24932;51.746;14.334;2022-11-25T15:52:43;13.13;;;5.68;;
39214;SDS011;24932;51.746;14.334;2022-11-25T15:56:42;16.17;;;6.47;;
39214;SDS011;24932;51.746;14.334;2022-11-25T16:00:41;20.12;;;6.2;;
39214;SDS011;24932;51.746;14.334;2022-11-25T16:04:41;19.37;;;6.82;;
39214;SDS011;24932;51.746;14.334;2022-11-25T16:08:40;14.27;;;6.62;;
39214;SDS011;24932;51.746;14.334;2022-11-25T16:12:40;14.27;;;6.07;;
39214;SDS011;24932;51.746;14.334;2022-11-25T16:16:40;15.55;;;6.5;;
39214;SDS011;24932;51.746;14.334;2022-11-25T16:20:45;15.18;;;6.05;;
39214;SDS011;24932;51.746;14.334;2022-11-25T16:24:44;15.52;;;6.05;;
39214;SDS011;24932;51.746;14.334;2022-11-25T16:28:41;17.62;;;5.37;;
39214;SDS011;24932;51.746;14.334;2022-11-25T16:32:40;18.05;;;5.62;;
39214;SDS011;24932;51.746;14.334;2022-11-25T16:36:40;22.02;;;8.05;;
39214;SDS011;24932;51.746;14.334;2022-11-25T16:40:40;20.52;;;8.25;;
39214;SDS011;24932;51.746;14.334;2022-11-25T16:44:41;20.15;;;9.02;;
39214;SDS011;24932;51.746;14.334;2022-11-25T16:48:40;19.83;;;8.57;;
39214;SDS011;24932;51.746;14.334;2022-11-25T16:52:40;21.7;;;8.35;;
39214;SDS011;24932;51.746;14.334;2022-11-25T16:56:40;18.62;;;7.28;;
39214;SDS011;24932;51.746;14.334;2022-11-25T17:00:41;14.52;;;7.03;;
39214;SDS011;24932;51.746;14.334;2022-11-25T17:04:40;16.17;;;6.72;;
39214;SDS011;24932;51.746;14.334;2022-11-25T17:08:41;17.58;;;7.0;;
39214;SDS011;24932;51.746;14.334;2022-11-25T17:12:40;27.08;;;8.77;;
39214;SDS011;24932;51.746;14.334;2022-11-25T17:16:40;21.02;;;7.15;;
39214;SDS011;24932;51.746;14.334;2022-11-25T17:20:40;13.27;;;6.65;;
39214;SDS011;24932;51.746;14.334;2022-11-25T17:24:40;22.98;;;7.5;;
39214;SDS011;24932;51.746;14.334;2022-11-25T17:28:40;20.62;;;7.18;;
39214;SDS011;24932;51.746;14.334;2022-11-25T17:32:40;20.58;;;7.32;;
39214;SDS011;24932;51.746;14.334;2022-11-25T17:36:40;21.02;;;8.43;;
39214;SDS011;24932;51.746;14.334;2022-11-25T17:40:40;18.5;;;6.87;;
39214;SDS011;24932;51.746;14.334;2022-11-25T17:44:41;12.37;;;6.22;;
39214;SDS011;24932;51.746;14.334;2022-11-25T17:48:40;17.83;;;7.15;;
39214;SDS011;24932;51.746;14.334;2022-11-25T17:52:41;15.27;;;6.47;;
39214;SDS011;24932;51.746;14.334;2022-11-25T17:56:40;10.35;;;5.3;;
39214;SDS011;24932;51.746;14.334;2022-11-25T18:00:41;13.02;;;5.4;;
39214;SDS011;24932;51.746;14.334;2022-11-25T18:04:41;13.23;;;4.7;;
39214;SDS011;24932;51.746;14.334;2022-11-25T18:08:41;15.75;;;6.85;;
39214;SDS011;24932;51.746;14.334;2022-11-25T18:12:41;15.3;;;5.5;;
39214;SDS011;24932;51.746;14.334;2022-11-25T18:16:40;13.02;;;5.72;;
39214;SDS011;24932;51.746;14.334;2022-11-25T18:20:40;9.02;;;4.62;;
39214;SDS011;24932;51.746;14.334;2022-11-25T18:24:41;19.17;;;6.18;;
39214;SDS011;24932;51.746;14.334;2022-11-25T18:28:39;12.68;;;5.03;;
39214;SDS011;24932;51.746;14.334;2022-11-25T18:32:40;13.27;;;6.4;;
39214;SDS011;24932;51.746;14.334;2022-11-25T18:36:40;15.27;;;6.4;;
39214;SDS011;24932;51.746;14.334;2022-11-25T18:40:41;18.48;;;6.03;;
39214;SDS011;24932;51.746;14.334;2022-11-25T18:44:41;15.32;;;6.2;;
39214;SDS011;24932;51.746;14.334;2022-11-25T18:48:40;13.65;;;6.43;;
39214;SDS011;24932;51.746;14.334;2022-11-25T18:52:40;16.48;;;7.0;;
39214;SDS011;24932;51.746;14.334;2022-11-25T18:56:40;17.85;;;5.93;;
39214;SDS011;24932;51.746;14.334;2022-11-25T19:00:40;16.02;;;5.9;;
39214;SDS011;24932;51.746;14.334;2022-11-25T19:04:40;15.27;;;5.78;;
39214;SDS011;24932;51.746;14.334;2022-11-25T19:08:41;16.48;;;7.03;;
39214;SDS011;24932;51.746;14.334;2022-11-25T19:12:41;9.7;;;5.55;;
39214;SDS011;24932;51.746;14.334;2022-11-25T19:16:40;15.13;;;6.45;;
39214;SDS011;24932;51.746;14.334;2022-11-25T19:20:40;15.48;;;6.93;;
39214;SDS011;24932;51.746;14.334;2022-11-25T19:24:41;15.18;;;7.0;;
39214;SDS011;24932;51.746;14.334;2022-11-25T19:28:40;12.45;;;6.68;;
39214;SDS011;24932;51.746;14.334;2022-11-25T19:32:40;15.38;;;7.85;;
39214;SDS011;24932;51.746;14.334;2022-11-25T19:36:41;20.15;;;7.18;;
39214;SDS011;24932;51.746;14.334;2022-11-25T19:40:40;16.83;;;7.4;;
39214;SDS011;24932;51.746;14.334;2022-11-25T19:44:40;19.17;;;8.23;;
39214;SDS011;24932;51.746;14.334;2022-11-25T19:48:41;12.8;;;8.48;;
39214;SDS011;24932;51.746;14.334;2022-11-25T19:52:40;19.8;;;8.75;;
39214;SDS011;24932;51.746;14.334;2022-11-25T19:56:40;14.8;;;8.35;;
39214;SDS011;24932;51.746;14.334;2022-11-25T20:00:41;23.0;;;8.9;;
39214;SDS011;24932;51.746;14.334;2022-11-25T20:04:41;20.8;;;9.57;;
39214;SDS011;24932;51.746;14.334;2022-11-25T20:08:41;20.58;;;10.27;;
39214;SDS011;24932;51.746;14.334;2022-11-25T20:12:40;25.02;;;11.68;;
39214;SDS011;24932;51.746;14.334;2022-11-25T20:16:40;25.05;;;10.93;;
39214;SDS011;24932;51.746;14.334;2022-11-25T20:20:41;21.65;;;9.85;;
39214;SDS011;24932;51.746;14.334;2022-11-25T20:24:40;21.98;;;10.73;;
39214;SDS011;24932;51.746;14.334;2022-11-25T20:28:40;23.7;;;11.98;;
39214;SDS011;24932;51.746;14.334;2022-11-25T20:32:40;29.1;;;13.13;;
39214;SDS011;24932;51.746;14.334;2022-11-25T20:36:41;33.95;;;13.77;;
39214;SDS011;24932;51.746;14.334;2022-11-25T20:40:41;27.3;;;13.25;;
39214;SDS011;24932;51.746;14.334;2022-11-25T20:44:40;28.8;;;12.88;;
39214;SDS011;24932;51.746;14.334;2022-11-25T20:48:41;23.55;;;11.63;;
39214;SDS011;24932;51.746;14.334;2022-11-25T20:52:40;25.58;;;12.63;;
39214;SDS011;24932;51.746;14.334;2022-11-25T20:56:40;27.0;;;12.52;;
39214;SDS011;24932;51.746;14.334;2022-11-25T21:00:40;24.42;;;12.8;;
39214;SDS011;24932;51.746;14.334;2022-11-25T21:04:41;33.53;;;14.75;;
39214;SDS011;24932;51.746;14.334;2022-11-25T21:08:40;42.45;;;16.25;;
39214;SDS011;24932;51.746;14.334;2022-11-25T21:12:40;28.58;;;13.4;;
39214;SDS011;24932;51.746;14.334;2022-11-25T21:16:40;26.48;;;14.38;;
39214;SDS011;24932;51.746;14.334;2022-11-25T21:20:40;43.9;;;15.73;;
39214;SDS011;24932;51.746;14.334;2022-11-25T21:24:41;34.4;;;15.02;;
39214;SDS011;24932;51.746;14.334;2022-11-25T21:28:41;32.2;;;14.2;;
39214;SDS011;24932;51.746;14.334;2022-11-25T21:32:40;27.85;;;13.62;;
39214;SDS011;24932;51.746;14.334;2022-11-25T21:36:40;32.08;;;14.1;;
39214;SDS011;24932;51.746;14.334;2022-11-25T21:40:41;28.35;;;13.8;;
39214;SDS011;24932;51.746;14.334;2022-11-25T21:44:41;29.6;;;14.02;;
39214;SDS011;24932;51.746;14.334;2022-11-25T21:48:40;36.53;;;14.87;;
39214;SDS011;24932;51.746;14.334;2022-11-25T21:52:40;33.65;;;14.57;;
39214;SDS011;24932;51.746;14.334;2022-11-25T21:56:40;34.08;;;13.7;;
39214;SDS011;24932;51.746;14.334;2022-11-25T22:00:40;31.17;;;13.85;;
39214;SDS011;24932;51.746;14.334;2022-11-25T22:04:40;22.35;;;12.73;;
39214;SDS011;24932;51.746;14.334;2022-11-25T22:08:40;29.23;;;12.8;;
39214;SDS011;24932;51.746;14.334;2022-11-25T22:12:42;30.55;;;13.98;;
39214;SDS011;24932;51.746;14.334;2022-11-25T22:16:40;22.2;;;11.6;;
39214;SDS011;24932;51.746;14.334;2022-11-25T22:20:40;30.77;;;15.03;;
39214;SDS011;24932;51.746;14.334;2022-11-25T22:24:41;24.52;;;13.23;;
39214;SDS011;24932;51.746;14.334;2022-11-25T22:28:40;23.25;;;12.23;;
39214;SDS011;24932;51.746;14.334;2022-11-25T22:32:40;26.23;;;12.9;;
39214;SDS011;24932;51.746;14.334;2022-11-25T22:36:40;25.52;;;13.73;;
39214;SDS011;24932;51.746;14.334;2022-11-25T22:40:40;29.48;;;12.55;;
39214;SDS011;24932;51.746;14.334;2022-11-25T22:44:41;23.48;;;13.68;;
39214;SDS011;24932;51.746;14.334;2022-11-25T22:48:40;28.95;;;14.52;;
39214;SDS011;24932;51.746;14.334;2022-11-25T22:52:41;23.42;;;12.85;;
39214;SDS011;24932;51.746;14.334;2022-11-25T22:56:40;24.75;;;13.8;;
39214;SDS011;24932;51.746;14.334;2022-11-25T23:00:41;27.52;;;13.98;;
39214;SDS011;24932;51.746;14.334;2022-11-25T23:04:40;28.73;;;13.77;;
39214;SDS011;24932;51.746;14.334;2022-11-25T23:08:40;29.58;;;14.25;;
39214;SDS011;24932;51.746;14.334;2022-11-25T23:12:40;25.98;;;14.43;;
39214;SDS011;24932;51.746;14.334;2022-11-25T23:16:40;22.42;;;14.25;;
39214;SDS011;24932;51.746;14.334;2022-11-25T23:20:40;22.13;;;13.8;;
39214;SDS011;24932;51.746;14.334;2022-11-25T23:24:42;33.05;;;15.77;;